Terminal Aerodrome Forecast
Issued by NWS Cleveland, OH

Home | Current Version | Previous Version | Graphics & Text | Print | Product List | Glossary On
Versions: 1 2 3 4 5 6 7 8 9 10 11 12 13 14 15 16 17 18 19 20 21 22 23
000
FTUS41 KCLE 272300
TAFMFD
TAF
KMFD 272336Z 2800/2824 24010KT P6SM VCTS OVC025CB
      TEMPO 2800/2802 3SM -TSRA OVC012CB
     FM280300 28008KT P6SM SCT020 OVC040
     FM281000 31010KT 5SM BR OVC006
     FM281500 33012KT P6SM OVC015=

USA.gov is the U.S. government's official web portal to all federal, state and local government web resources and services.